KTPAKSPG

Guest
Details From KTPA - TAMPA INTL
To KSPG - Albert Whitted
Flight Number -
Tags generated
Created
Modified
Stats Distance 14 nm / 25 km
Max Altitude 0 ft / 0 m
Waypoints 2
Social Downloads 0
Likes 0
Share VATSIM

Download

Looking for another format? Having issues loading an existing format? Contact us
Advertisement - Login to hide

Notes

Basic altitude profile: - Ascent Rate: 2500ft/min - Ascent Speed: 250kts - Cruise Altitude: 35000ft - Cruise Speed: 420kts - Descent Rate: 1500ft/min - Descent Speed: 250kts Options: - Use NATs: yes - Use PACOTS: yes - Use low airways: yes - Use high airways: no

Route

KTPA KSPG

ID Type Via Altitude Latitude Longitude Leg Dist Tot Dist Heading (true) Name
O KTPA APT - 0 ft / 0 m 27.97489˚ -82.53190˚ - 0 nm - TAMPA INTL
O KSPG APT - 0 ft / 0 m 27.76505˚ -82.62674˚ 13 nm 13 nm 202° / 202° Albert Whitted

Altitude Profile

Advertisement - Login to hide

KTPA

Details ICAO KTPA (TPA)
Name TAMPA INTL
Region United States
Timezone America/New_York (UTC-5.0)
Stats Elevation 26 ft / 8 m (AMSL)
Location 27.974892° -82.531898°
Runways 3
Magnetic Variation 5.556° W

METAR

KTPA 131853Z 25008KT 10SM FEW250 17/01 A3008 RMK AO2 SLP186 T01670011

Decode

TAF

TAF KTPA 131725Z 1318/1424 29006KT P6SM SKC FM140300 VRB03KT P6SM SKC FM141500 20008KT P6SM FEW025 FM141800 23010KT P6SM SCT030 BKN060

Decode

Departure Runways

ID Width Length Bearing (true) Bearing (mag) Surface Threshold Offset Overrun Length
01L 150 ft / 46 m 11,042 ft / 3,366 m 1.72° 7.28° Concrete 0 ft / 0 m 0 ft / 0 m
01R 150 ft / 46 m 8,330 ft / 2,539 m 1.72° 7.28° Asphalt 0 ft / 0 m 0 ft / 0 m
09 150 ft / 46 m 6,987 ft / 2,130 m 91.74° 97.30° Asphalt 0 ft / 0 m 0 ft / 0 m
19L 150 ft / 46 m 8,330 ft / 2,539 m 181.73° 187.29° Asphalt 0 ft / 0 m 0 ft / 0 m
19R 150 ft / 46 m 11,042 ft / 3,366 m 181.72° 187.28° Concrete 0 ft / 0 m 0 ft / 0 m
27 150 ft / 46 m 6,987 ft / 2,130 m 271.75° 277.31° Asphalt 0 ft / 0 m 0 ft / 0 m

KSPG

Details ICAO KSPG (SPG)
Name Albert Whitted
Region United States
Timezone America/New_York (UTC-5.0)
Stats Elevation 7 ft / 2 m (AMSL)
Location 27.765051° -82.626745°
Runways 2
Magnetic Variation 5.466° W

METAR

KSPG 131853Z 18008KT 10SM CLR 16/04 A3007 RMK AO2 SLP181 T01560044

Decode

TAF

Not found

Destination Runways

ID Width Length Bearing (true) Bearing (mag) Surface Threshold Offset Overrun Length
06 75 ft / 23 m 3,676 ft / 1,120 m 61.97° 67.44° Asphalt 558 ft / 170 m 0 ft / 0 m
18 150 ft / 46 m 2,875 ft / 876 m 179.64° 185.11° Asphalt 0 ft / 0 m 0 ft / 0 m
24 75 ft / 23 m 3,676 ft / 1,120 m 241.98° 247.45° Asphalt 263 ft / 80 m 0 ft / 0 m
36 150 ft / 46 m 2,875 ft / 876 m 359.64° 5.11° Asphalt 0 ft / 0 m 0 ft / 0 m